createdAt,value
2022-10-15T00:02:17.249Z,0.40
2022-10-15T00:04:43.500Z,0.43
2022-10-15T00:07:09.726Z,0.57
2022-10-15T00:09:35.953Z,0.50
2022-10-15T00:12:02.426Z,0.28
2022-10-15T00:14:28.972Z,0.40
2022-10-15T00:16:55.234Z,0.60
2022-10-15T00:19:21.430Z,0.40
2022-10-15T00:21:47.679Z,0.50
2022-10-15T00:24:13.903Z,0.43
2022-10-15T00:26:40.177Z,0.50
2022-10-15T00:29:06.459Z,0.20
2022-10-15T00:31:32.836Z,0.50
2022-10-15T00:34:00.512Z,0.38
2022-10-15T00:36:28.720Z,0.50
2022-10-15T00:38:55.327Z,0.50
2022-10-15T00:41:22.914Z,0.30
2022-10-15T00:43:53.772Z,0.45
2022-10-15T00:46:28.809Z,0.30
2022-10-15T00:49:05.485Z,0.38
2022-10-15T00:51:33.695Z,0.20
2022-10-15T00:54:00.393Z,0.30
2022-10-15T00:56:27.348Z,0.30
2022-10-15T00:58:54.016Z,0.55
2022-10-15T01:01:20.316Z,0.52
2022-10-15T01:03:46.615Z,0.65
2022-10-15T01:06:12.872Z,0.70
2022-10-15T01:08:39.135Z,0.40
2022-10-15T01:11:11.384Z,0.40
2022-10-15T01:13:42.984Z,0.32
2022-10-15T01:16:20.007Z,0.45
2022-10-15T01:18:50.136Z,0.45
2022-10-15T01:21:28.908Z,0.40
2022-10-15T01:24:13.791Z,0.30
2022-10-15T01:27:18.673Z,0.38
2022-10-15T01:30:03.793Z,0.57
2022-10-15T01:32:32.945Z,0.43
2022-10-15T01:35:07.996Z,0.50
2022-10-15T01:37:53.178Z,0.50
2022-10-15T01:40:25.446Z,0.30
2022-10-15T01:42:54.427Z,0.40
2022-10-15T01:45:23.079Z,0.57
2022-10-15T01:47:51.896Z,0.60
2022-10-15T01:50:20.226Z,0.40
2022-10-15T01:52:47.476Z,0.50
2022-10-15T01:55:14.703Z,0.70
2022-10-15T01:57:42.275Z,0.70
2022-10-15T02:00:08.825Z,0.45
2022-10-15T02:02:35.022Z,0.35
2022-10-15T02:05:01.246Z,0.70
2022-10-15T02:07:40.201Z,0.40
2022-10-15T02:10:15.949Z,0.80
2022-10-15T02:12:48.766Z,0.70
2022-10-15T02:15:18.255Z,0.40
2022-10-15T02:17:44.430Z,0.40
2022-10-15T02:20:14.230Z,0.68
2022-10-15T02:23:00.699Z,0.60
2022-10-15T02:25:28.158Z,0.63
2022-10-15T02:27:55.427Z,0.75
2022-10-15T02:30:22.559Z,0.45
2022-10-15T02:32:52.170Z,0.70
2022-10-15T02:35:18.980Z,0.50
2022-10-15T02:37:48.667Z,0.70
2022-10-15T02:40:14.946Z,0.50
2022-10-15T02:42:41.163Z,0.50
2022-10-15T02:45:07.721Z,0.80
2022-10-15T02:47:34.076Z,0.55
2022-10-15T02:50:00.329Z,0.80
2022-10-15T02:52:26.775Z,0.47
2022-10-15T02:54:53.096Z,0.52
2022-10-15T02:57:19.345Z,1.00
2022-10-15T02:59:45.559Z,0.60
2022-10-15T03:02:15.336Z,0.70
2022-10-15T03:04:44.636Z,0.68
2022-10-15T03:07:10.907Z,0.50
2022-10-15T03:09:37.115Z,0.47
2022-10-15T03:12:03.448Z,0.50
2022-10-15T03:16:55.825Z,0.35
2022-10-15T03:19:22.057Z,0.35
2022-10-15T03:21:48.327Z,0.57
2022-10-15T03:24:14.557Z,0.50
2022-10-15T03:26:40.784Z,0.90
2022-10-15T03:29:06.991Z,1.00
2022-10-15T03:31:33.247Z,0.55
2022-10-15T03:33:59.453Z,0.30
2022-10-15T03:36:25.720Z,0.50
2022-10-15T03:38:51.922Z,0.60
2022-10-15T03:41:18.151Z,0.70
2022-10-15T03:43:44.354Z,0.50
2022-10-15T03:46:10.591Z,0.22
2022-10-15T03:48:36.906Z,0.80
2022-10-15T03:51:03.183Z,0.70
2022-10-15T03:53:29.410Z,1.13
2022-10-15T03:55:55.613Z,1.02
2022-10-15T03:58:21.811Z,1.00
2022-10-15T04:00:48.113Z,0.52
2022-10-15T04:03:14.389Z,0.77
2022-10-15T04:05:40.592Z,1.00
2022-10-15T04:08:06.859Z,0.63
2022-10-15T04:10:33.086Z,1.20
2022-10-15T04:12:59.286Z,1.25
2022-10-15T04:15:27.245Z,0.60
2022-10-15T04:17:54.380Z,0.70
2022-10-15T04:20:20.604Z,0.40
2022-10-15T04:22:46.794Z,0.80
2022-10-15T04:25:13.029Z,0.70
2022-10-15T04:27:39.659Z,1.30
2022-10-15T04:30:06.355Z,0.70
2022-10-15T04:32:32.576Z,1.90
2022-10-15T04:34:58.783Z,0.60
2022-10-15T04:37:25.359Z,0.77
2022-10-15T04:39:51.739Z,0.40
2022-10-15T04:42:18.078Z,0.70
2022-10-15T04:44:44.337Z,0.80
2022-10-15T04:47:10.777Z,0.40
2022-10-15T04:49:36.980Z,0.85
2022-10-15T04:52:03.227Z,0.68
2022-10-15T04:54:29.439Z,0.47
2022-10-15T04:56:55.667Z,0.88
2022-10-15T04:59:21.876Z,0.70
2022-10-15T05:01:48.129Z,0.75
2022-10-15T05:04:14.507Z,0.70
2022-10-15T05:06:40.803Z,0.50
2022-10-15T05:09:07.182Z,0.80
2022-10-15T05:11:35.421Z,0.70
2022-10-15T05:14:01.639Z,0.80
2022-10-15T05:16:28.931Z,0.80
2022-10-15T05:18:56.162Z,0.40
2022-10-15T05:21:22.667Z,0.60
2022-10-15T05:23:50.223Z,0.70
2022-10-15T05:26:20.955Z,0.50
2022-10-15T05:28:47.611Z,0.73
2022-10-15T05:31:18.951Z,0.95
2022-10-15T05:33:46.222Z,1.08
2022-10-15T05:36:14.245Z,1.50
2022-10-15T05:38:41.054Z,1.45
2022-10-15T05:41:07.300Z,0.82
2022-10-15T05:43:36.126Z,1.85
2022-10-15T05:46:05.216Z,1.27
2022-10-15T05:48:31.416Z,1.17
2022-10-15T05:51:04.709Z,1.20
2022-10-15T05:53:31.131Z,1.58
2022-10-15T05:55:58.730Z,1.10
2022-10-15T05:58:25.404Z,1.45
2022-10-15T06:00:55.019Z,1.88
2022-10-15T06:03:21.406Z,1.00
2022-10-15T06:05:47.628Z,1.10
2022-10-15T06:08:13.847Z,1.30
2022-10-15T06:10:40.140Z,1.45
2022-10-15T06:13:06.583Z,1.30
2022-10-15T06:15:33.229Z,1.10
2022-10-15T06:18:00.062Z,1.45
2022-10-15T06:20:27.071Z,0.80
2022-10-15T06:22:56.963Z,1.30
2022-10-15T06:25:23.240Z,1.10
2022-10-15T06:27:49.430Z,1.00
2022-10-15T06:30:15.692Z,1.00
2022-10-15T06:32:49.004Z,1.10
2022-10-15T06:35:15.264Z,1.17
2022-10-15T06:37:41.465Z,0.82
2022-10-15T06:40:08.077Z,1.00
2022-10-15T06:42:34.284Z,0.80
2022-10-15T06:45:00.504Z,0.70
2022-10-15T06:47:26.877Z,0.80
2022-10-15T06:49:53.227Z,0.70
2022-10-15T06:52:20.573Z,0.90
2022-10-15T06:54:46.797Z,0.90
2022-10-15T06:57:13.122Z,0.75
2022-10-15T06:59:41.386Z,0.55
2022-10-15T07:02:11.119Z,0.55
2022-10-15T07:04:37.785Z,0.63
2022-10-15T07:07:03.996Z,0.60
2022-10-15T07:09:30.267Z,0.50
2022-10-15T07:11:56.507Z,0.50
2022-10-15T07:14:22.859Z,0.55
2022-10-15T07:16:49.070Z,0.70
2022-10-15T07:19:15.279Z,0.43
2022-10-15T07:21:41.478Z,0.32
2022-10-15T07:24:07.753Z,0.50
2022-10-15T07:26:34.043Z,0.32
2022-10-15T07:29:00.418Z,0.30
2022-10-15T07:31:26.899Z,0.50
2022-10-15T07:33:53.130Z,0.30
2022-10-15T07:36:20.696Z,0.30
2022-10-15T07:38:46.915Z,0.22
2022-10-15T07:41:13.153Z,0.30
2022-10-15T07:43:39.359Z,0.25
2022-10-15T07:46:05.651Z,0.30
2022-10-15T07:48:32.448Z,0.20
2022-10-15T07:50:59.448Z,0.10
2022-10-15T07:53:25.673Z,0.30
2022-10-15T07:55:51.903Z,0.20
2022-10-15T07:58:18.519Z,0.38
2022-10-15T08:00:44.777Z,0.40
2022-10-15T08:03:10.998Z,0.20
2022-10-15T08:05:37.204Z,0.13
2022-10-15T08:08:03.681Z,0.30
2022-10-15T08:10:29.906Z,0.20
2022-10-15T08:12:57.067Z,0.20
2022-10-15T08:15:23.286Z,0.20
2022-10-15T08:17:49.488Z,0.15
2022-10-15T08:20:16.811Z,0.28
2022-10-15T08:22:43.034Z,0.20
2022-10-15T08:25:09.399Z,0.32
2022-10-15T08:27:36.248Z,0.20
2022-10-15T08:30:02.567Z,0.13
2022-10-15T08:32:28.758Z,0.20
2022-10-15T08:34:54.989Z,0.10
2022-10-15T08:37:21.328Z,0.17
2022-10-15T08:39:47.590Z,0.20
2022-10-15T08:42:19.100Z,0.25
2022-10-15T08:44:54.047Z,0.30
2022-10-15T08:47:40.508Z,0.10
2022-10-15T08:50:16.986Z,0.10
2022-10-15T08:52:45.039Z,0.30
2022-10-15T08:55:21.616Z,0.10
2022-10-15T08:57:48.563Z,0.10
2022-10-15T09:00:14.733Z,0.17
2022-10-15T09:02:53.023Z,0.13
2022-10-15T09:05:26.063Z,0.17
2022-10-15T09:07:55.486Z,0.10
2022-10-15T09:10:32.109Z,0.10
2022-10-15T09:12:59.926Z,0.15
2022-10-15T09:15:27.847Z,0.20
2022-10-15T09:17:54.812Z,0.10
2022-10-15T09:20:24.880Z,0.20
2022-10-15T09:22:51.917Z,0.30
2022-10-15T09:25:19.723Z,0.30
2022-10-15T09:27:46.991Z,0.10
2022-10-15T09:30:21.839Z,0.20
2022-10-15T09:32:54.582Z,0.10
2022-10-15T09:35:33.113Z,0.20
2022-10-15T09:38:02.287Z,0.20
2022-10-15T09:40:40.838Z,0.10
2022-10-15T09:43:07.158Z,0.10
2022-10-15T09:45:33.499Z,0.00
2022-10-15T09:48:00.347Z,0.70
2022-10-15T09:50:29.642Z,0.20
2022-10-15T09:53:03.670Z,0.10
2022-10-15T09:55:34.725Z,0.10
2022-10-15T09:58:07.045Z,0.88
2022-10-15T10:00:51.782Z,0.40
2022-10-15T10:03:18.047Z,0.20
2022-10-15T10:05:45.705Z,0.20
2022-10-15T10:08:25.051Z,0.20
2022-10-15T10:11:04.846Z,0.10
2022-10-15T10:13:36.290Z,0.10
2022-10-15T10:16:12.380Z,0.20
2022-10-15T10:18:38.989Z,0.20
2022-10-15T10:21:22.327Z,0.00
2022-10-15T10:23:48.575Z,0.10
2022-10-15T10:26:14.960Z,0.35
2022-10-15T10:28:46.920Z,0.10
2022-10-15T10:33:39.345Z,0.10
2022-10-15T10:36:06.699Z,0.03
2022-10-15T10:38:36.843Z,0.10
2022-10-15T10:41:09.654Z,0.10
2022-10-15T10:43:39.299Z,0.10
2022-10-15T10:46:05.936Z,0.20
2022-10-15T10:48:42.393Z,0.10
2022-10-15T10:51:16.746Z,0.00
2022-10-15T10:53:53.578Z,0.35
2022-10-15T10:56:46.447Z,0.10
2022-10-15T10:59:30.740Z,0.10
2022-10-15T11:01:57.382Z,0.03
2022-10-15T11:04:31.426Z,0.10
2022-10-15T11:07:09.180Z,0.10
2022-10-15T11:09:43.971Z,0.10
2022-10-15T11:12:18.524Z,0.00
2022-10-15T11:14:54.478Z,0.13
2022-10-15T11:17:39.343Z,0.10
2022-10-15T11:20:29.250Z,0.10
2022-10-15T11:22:59.722Z,0.10
2022-10-15T11:25:41.095Z,0.20
2022-10-15T11:28:10.408Z,0.10
2022-10-15T11:30:36.591Z,0.00
2022-10-15T11:33:08.026Z,0.10
2022-10-15T11:36:01.139Z,0.10
2022-10-15T11:41:13.760Z,0.13
2022-10-15T11:43:52.242Z,0.08
2022-10-15T11:46:36.279Z,0.00
2022-10-15T11:49:08.359Z,0.10
2022-10-15T11:52:00.639Z,0.10
2022-10-15T11:56:54.013Z,0.00
2022-10-15T11:59:37.684Z,0.10
2022-10-15T12:02:06.426Z,0.10
2022-10-15T12:04:38.199Z,0.00
2022-10-15T12:07:05.867Z,0.10
2022-10-15T12:09:35.279Z,0.03
2022-10-15T12:12:36.835Z,0.10
2022-10-15T12:15:21.744Z,0.20
2022-10-15T12:17:50.737Z,0.00
2022-10-15T12:20:19.061Z,0.00
2022-10-15T12:22:50.010Z,0.00
2022-10-15T12:25:34.731Z,0.00
2022-10-15T12:28:00.918Z,0.00
2022-10-15T12:30:28.380Z,0.10
2022-10-15T12:32:54.787Z,0.10
2022-10-15T12:35:23.123Z,0.10
2022-10-15T12:37:49.941Z,0.10
2022-10-15T12:40:27.234Z,0.05
2022-10-15T12:42:56.475Z,0.10
2022-10-15T12:45:24.216Z,0.00
2022-10-15T12:47:53.945Z,0.10
2022-10-15T12:50:24.995Z,0.10
2022-10-15T12:53:01.628Z,0.10
2022-10-15T12:55:30.884Z,0.10
2022-10-15T12:58:04.830Z,0.10
2022-10-15T13:00:41.247Z,0.10
2022-10-15T13:03:15.620Z,0.10
2022-10-15T13:05:42.345Z,0.10
2022-10-15T13:08:13.516Z,0.10
2022-10-15T13:10:40.853Z,0.10
2022-10-15T13:13:12.242Z,0.00
2022-10-15T13:15:39.498Z,0.10
2022-10-15T13:18:10.886Z,0.10
2022-10-15T13:20:38.745Z,0.10
2022-10-15T13:23:29.774Z,0.05
2022-10-15T13:26:16.142Z,0.10
2022-10-15T13:28:43.032Z,0.10
2022-10-15T13:31:14.958Z,0.20
2022-10-15T13:33:42.458Z,0.10
2022-10-15T13:36:09.839Z,0.10
2022-10-15T13:38:38.552Z,0.10
2022-10-15T13:41:04.877Z,0.10
2022-10-15T13:43:31.079Z,0.08
2022-10-15T13:45:58.847Z,0.10
2022-10-15T13:48:26.337Z,0.00
2022-10-15T13:51:02.715Z,0.10
2022-10-15T13:53:33.932Z,0.08
2022-10-15T13:56:01.363Z,0.10
2022-10-15T13:58:33.071Z,0.00
2022-10-15T14:00:59.818Z,0.25
2022-10-15T14:03:27.541Z,0.00
2022-10-15T14:05:54.435Z,0.05
2022-10-15T14:08:23.578Z,0.10
2022-10-15T14:10:50.845Z,0.10
2022-10-15T14:13:17.145Z,0.00
2022-10-15T14:15:52.769Z,0.10
2022-10-15T14:18:27.866Z,0.20
2022-10-15T14:20:54.259Z,0.30
2022-10-15T14:23:22.900Z,0.10
2022-10-15T14:25:54.625Z,0.00
2022-10-15T14:28:21.440Z,0.15
2022-10-15T14:30:48.178Z,0.28
2022-10-15T14:33:33.388Z,0.10
2022-10-15T14:36:19.337Z,0.00
2022-10-15T14:38:45.638Z,0.20
2022-10-15T14:41:25.903Z,0.10
2022-10-15T14:44:04.487Z,0.10
2022-10-15T14:46:50.534Z,0.17
2022-10-15T14:49:19.767Z,0.10
2022-10-15T14:51:51.569Z,0.10
2022-10-15T14:54:23.091Z,0.20
2022-10-15T14:56:50.509Z,0.10
2022-10-15T14:59:18.078Z,0.10
2022-10-15T15:01:57.162Z,0.00
2022-10-15T15:04:33.256Z,0.00
2022-10-15T15:06:59.455Z,0.10
2022-10-15T15:09:25.683Z,0.15
2022-10-15T15:11:51.940Z,0.20
2022-10-15T15:14:22.134Z,0.00
2022-10-15T15:16:48.429Z,0.20
2022-10-15T15:19:14.651Z,0.10
2022-10-15T15:21:40.895Z,0.20
2022-10-15T15:24:08.820Z,0.10
2022-10-15T15:26:35.031Z,0.13
2022-10-15T15:29:04.192Z,0.03
2022-10-15T15:31:33.639Z,0.05
2022-10-15T15:33:59.848Z,0.10
2022-10-15T15:36:26.056Z,0.00
2022-10-15T15:38:53.423Z,0.20
2022-10-15T15:41:20.671Z,0.20
2022-10-15T15:43:47.174Z,0.15
2022-10-15T15:46:13.502Z,0.08
2022-10-15T15:48:39.747Z,0.00
2022-10-15T15:51:41.479Z,0.20
2022-10-15T15:54:09.728Z,0.10
2022-10-15T15:56:35.993Z,0.10
2022-10-15T15:59:02.260Z,0.10
2022-10-15T16:01:28.532Z,0.20
2022-10-15T16:03:54.785Z,0.30
2022-10-15T16:06:20.991Z,0.10
2022-10-15T16:08:47.355Z,0.20
2022-10-15T16:11:13.563Z,0.15
2022-10-15T16:13:40.785Z,0.20
2022-10-15T16:16:07.128Z,0.10
2022-10-15T16:18:33.387Z,0.10
2022-10-15T16:20:59.617Z,0.10
2022-10-15T16:23:25.946Z,0.10
2022-10-15T16:25:53.973Z,0.15
2022-10-15T16:28:20.279Z,0.13
2022-10-15T16:30:46.510Z,0.25
2022-10-15T16:33:12.716Z,0.10
2022-10-15T16:35:38.958Z,0.10
2022-10-15T16:38:05.242Z,0.20
2022-10-15T16:40:31.445Z,0.20
2022-10-15T16:42:57.659Z,0.20
2022-10-15T16:45:23.911Z,0.17
2022-10-15T16:47:50.117Z,0.15
2022-10-15T16:50:16.379Z,0.20
2022-10-15T16:52:42.658Z,0.20
2022-10-15T16:55:09.064Z,0.30
2022-10-15T16:57:35.318Z,0.20
2022-10-15T17:00:01.653Z,0.20
2022-10-15T17:02:28.194Z,0.10
2022-10-15T17:04:54.552Z,0.17
2022-10-15T17:07:20.798Z,0.10
2022-10-15T17:12:13.983Z,0.25
2022-10-15T17:14:40.473Z,0.30
2022-10-15T17:17:07.652Z,0.10
2022-10-15T17:19:34.993Z,0.20
2022-10-15T17:22:01.252Z,0.13
2022-10-15T17:24:27.552Z,0.10
2022-10-15T17:26:54.676Z,0.30
2022-10-15T17:29:22.875Z,0.10
2022-10-15T17:31:49.370Z,0.10
2022-10-15T17:34:16.027Z,0.20
2022-10-15T17:36:45.371Z,0.10
2022-10-15T17:39:13.237Z,0.20
2022-10-15T17:41:39.619Z,0.20
2022-10-15T17:44:05.845Z,0.30
2022-10-15T17:46:32.554Z,0.10
2022-10-15T17:48:59.063Z,0.10
2022-10-15T17:51:26.764Z,0.40
2022-10-15T17:53:53.320Z,0.20
2022-10-15T17:56:21.504Z,0.20
2022-10-15T17:58:48.399Z,0.15
2022-10-15T18:01:20.503Z,0.15
2022-10-15T18:03:54.808Z,0.25
2022-10-15T18:06:22.328Z,0.28
2022-10-15T18:08:49.007Z,0.25
2022-10-15T18:11:16.951Z,0.40
2022-10-15T18:13:43.210Z,0.30
2022-10-15T18:16:09.567Z,0.22
2022-10-15T18:18:35.902Z,0.10
2022-10-15T18:21:03.352Z,0.20
2022-10-15T18:26:01.501Z,0.30
2022-10-15T18:28:27.831Z,0.20
2022-10-15T18:30:54.107Z,0.20
2022-10-15T18:33:20.400Z,0.20
2022-10-15T18:35:46.604Z,0.30
2022-10-15T18:38:12.817Z,0.30
2022-10-15T18:40:41.240Z,0.20
2022-10-15T18:43:07.581Z,0.15
2022-10-15T18:45:35.763Z,0.20
2022-10-15T18:48:02.503Z,0.10
2022-10-15T18:50:29.046Z,0.10
2022-10-15T18:52:55.365Z,0.32
2022-10-15T18:55:21.644Z,0.30
2022-10-15T18:57:48.424Z,0.25
2022-10-15T19:00:14.935Z,0.57
2022-10-15T19:02:41.175Z,0.10
2022-10-15T19:05:07.620Z,0.13
2022-10-15T19:07:33.894Z,0.20
2022-10-15T19:10:00.448Z,0.15
2022-10-15T19:12:27.573Z,0.35
2022-10-15T19:14:54.039Z,0.30
2022-10-15T19:17:20.263Z,0.20
2022-10-15T19:19:50.052Z,0.13
2022-10-15T19:22:16.950Z,0.20
2022-10-15T19:24:43.161Z,0.28
2022-10-15T19:29:41.038Z,0.05
2022-10-15T19:32:07.849Z,0.20
2022-10-15T19:34:35.263Z,0.20
2022-10-15T19:37:01.572Z,0.15
2022-10-15T19:39:28.531Z,0.20
2022-10-15T19:41:54.813Z,0.20
2022-10-15T19:44:24.941Z,0.20
2022-10-15T19:46:51.953Z,0.13
2022-10-15T19:49:18.169Z,0.10
2022-10-15T19:51:46.464Z,0.10
2022-10-15T19:54:12.710Z,0.17
2022-10-15T19:56:39.036Z,0.30
2022-10-15T19:59:05.786Z,0.30
2022-10-15T20:01:32.328Z,0.20
2022-10-15T20:04:05.825Z,0.15
2022-10-15T20:06:33.691Z,0.28
2022-10-15T20:09:00.398Z,0.40
2022-10-15T20:11:26.670Z,0.20
2022-10-15T20:13:53.650Z,0.10
2022-10-15T20:16:22.990Z,0.30
2022-10-15T20:18:50.273Z,0.22
2022-10-15T20:21:16.891Z,0.30
2022-10-15T20:23:44.186Z,0.20
2022-10-15T20:26:12.108Z,0.20
2022-10-15T20:28:39.625Z,0.30
2022-10-15T20:31:07.039Z,0.20
2022-10-15T20:33:33.690Z,0.30
2022-10-15T20:36:11.944Z,0.20
2022-10-15T20:38:40.857Z,0.22
2022-10-15T20:41:08.016Z,0.20
2022-10-15T20:43:34.560Z,0.93
2022-10-15T20:46:00.762Z,0.13
2022-10-15T20:48:27.030Z,0.20
2022-10-15T20:50:54.537Z,0.20
2022-10-15T20:53:21.786Z,0.40
2022-10-15T20:55:48.154Z,0.20
2022-10-15T21:00:41.730Z,0.20
2022-10-15T21:03:07.966Z,0.43
2022-10-15T21:05:34.228Z,0.45
2022-10-15T21:08:00.445Z,0.20
2022-10-15T21:10:26.696Z,0.20
2022-10-15T21:12:52.979Z,0.20
2022-10-15T21:15:19.229Z,0.30
2022-10-15T21:17:45.425Z,0.20
2022-10-15T21:20:11.628Z,0.20
2022-10-15T21:22:37.839Z,0.35
2022-10-15T21:25:04.312Z,0.10
2022-10-15T21:27:30.566Z,0.47
2022-10-15T21:29:56.816Z,0.25
2022-10-15T21:32:23.176Z,0.17
2022-10-15T21:34:49.393Z,0.20
2022-10-15T21:37:15.864Z,0.28
2022-10-15T21:39:42.078Z,0.10
2022-10-15T21:42:08.289Z,0.20
2022-10-15T21:44:34.536Z,0.20
2022-10-15T21:47:00.797Z,0.38
2022-10-15T21:49:27.039Z,0.30
2022-10-15T21:51:53.240Z,0.15
2022-10-15T21:54:19.437Z,0.20
2022-10-15T21:56:45.636Z,0.20
2022-10-15T21:59:11.943Z,0.20
2022-10-15T22:01:38.252Z,0.73
2022-10-15T22:04:05.994Z,0.38
2022-10-15T22:06:32.478Z,0.20
2022-10-15T22:08:59.097Z,0.17
2022-10-15T22:13:59.078Z,0.22
2022-10-15T22:16:26.234Z,0.32
2022-10-15T22:18:52.748Z,0.20
2022-10-15T22:21:20.211Z,0.20
2022-10-15T22:23:50.759Z,0.20
2022-10-15T22:26:17.828Z,0.13
2022-10-15T22:28:44.961Z,0.20
2022-10-15T22:31:12.596Z,0.38
2022-10-15T22:33:40.538Z,0.10
2022-10-15T22:36:13.131Z,0.13
2022-10-15T22:38:40.220Z,0.20
2022-10-15T22:41:07.534Z,0.20
2022-10-15T22:43:33.985Z,0.20
2022-10-15T22:46:00.255Z,0.20
2022-10-15T22:48:26.690Z,0.20
2022-10-15T22:50:59.614Z,0.20
2022-10-15T22:53:26.390Z,0.10
2022-10-15T22:55:59.341Z,0.10
2022-10-15T22:58:26.043Z,0.20
2022-10-15T23:00:53.855Z,0.20
2022-10-15T23:03:20.375Z,0.10
2022-10-15T23:05:53.197Z,0.20
2022-10-15T23:08:20.020Z,0.30
2022-10-15T23:10:46.310Z,0.20
2022-10-15T23:13:12.607Z,0.10
2022-10-15T23:15:38.830Z,0.20
2022-10-15T23:18:05.065Z,0.15
2022-10-15T23:20:33.708Z,0.30
2022-10-15T23:23:02.623Z,0.20
2022-10-15T23:25:28.824Z,0.10
2022-10-15T23:27:55.105Z,0.15
2022-10-15T23:30:25.108Z,0.10
2022-10-15T23:32:51.500Z,0.30
2022-10-15T23:35:17.798Z,0.20
2022-10-15T23:37:43.999Z,0.10
2022-10-15T23:40:10.405Z,0.30
2022-10-15T23:42:36.612Z,0.10
2022-10-15T23:45:02.885Z,0.20
2022-10-15T23:47:29.102Z,0.10
2022-10-15T23:49:55.331Z,0.00
2022-10-15T23:52:21.544Z,0.10
2022-10-15T23:54:49.382Z,0.10
2022-10-15T23:57:15.619Z,0.10
2022-10-15T23:59:41.853Z,0.20
